• Join FlightAware (Why Join?)
  • Login
  • US Flag 
11:00PM EDT


 

Airport Tracker/Info


-or-


 

Live Flight TrackerFlight Track Log ✈ SWA440 ✈ 16-Apr-2013 ✈ KMSP - KMDW

Flight Track Log - Related Links

Times and Time Zones

All times are in EDT time to prevent confusion due to time zone crossing. See the SWA440 flight status page for this flight to view local times or setup timezone preferences in your user account.

Time Position Orientation Groundspeed Altitude Reporting Facility
EDT Latitude Longitude Course Direction KTS MPH feet Rate Location/Type
07:14AM 44.8931 -93.2611 258° West 171 197 2,700  Level FAA TRACON SMA TRACON (SMA)
07:14AM 44.8897 -93.2833 258° West 186 214 3,600 3,180 Climbing FAA TRACON SMA TRACON (SMA)
07:14AM 44.8847 -93.3122 256° West 197 227 4,900 3,420 Climbing FAA TRACON SMA TRACON (SMA)
07:15AM 44.8811 -93.3367 258° West 203 234 5,900 3,660 Climbing FAA TRACON SMA TRACON (SMA)
07:15AM 44.8772 -93.3600 257° West 201 231 7,300 4,920 Climbing FAA TRACON SMA TRACON (SMA)
07:15AM 44.8622 -93.3806 224° Southwest 214 246 9,200 4,620 Climbing FAA TRACON SMA TRACON (SMA)
07:16AM 44.8428 -93.3761 171° South 235 270 10,400 2,340 Climbing FAA TRACON SMA TRACON (SMA)
07:16AM 44.8219 -93.3594 150° Southeast 266 306 10,800 2,100 Climbing FAA TRACON SMA TRACON (SMA)
07:16AM 44.7944 -93.3289 142° Southeast 320 368 11,800 3,060 Climbing FAA TRACON SMA TRACON (SMA)
07:17AM 44.7714 -93.3028 141° Southeast 343 395 12,800 3,120 Climbing FAA TRACON SMA TRACON (SMA)
07:17AM 44.7475 -93.2769 142° Southeast 351 404 13,900 3,600 Climbing FAA TRACON SMA TRACON (SMA)
07:17AM 44.7158 -93.2456 145° Southeast 359 413 15,200 3,120 Climbing FAA TRACON SMA TRACON (SMA)
07:18AM 44.6900 -93.2197 145° Southeast 368 423 16,200 2,880 Climbing FAA TRACON SMA TRACON (SMA)
07:18AM 44.6561 -93.1864 145° Southeast 382 440 17,300 3,480 Climbing FAA TRACON SMA TRACON (SMA)
07:18AM 44.6286 -93.1592 145° Southeast 392 451 18,300 3,420 Climbing FAA TRACON SMA TRACON (SMA)
07:19AM 44.6008 -93.1317 145° Southeast 397 457 19,500 3,420 Climbing FAA TRACON SMA TRACON (SMA)
07:19AM 44.5728 -93.1044 145° Southeast 397 457 20,600 3,660 Climbing FAA TRACON SMA TRACON (SMA)
07:19AM 44.5378 -93.0689 144° Southeast 401 461 21,900 3,420 Climbing FAA TRACON SMA TRACON (SMA)
07:20AM 44.5092 -93.0414 146° Southeast 403 464 22,900 2,700 Climbing FAA TRACON SMA TRACON (SMA)
07:20AM 44.4808 -93.0125 144° Southeast 407 468 23,700 2,700 Climbing FAA TRACON SMA TRACON (SMA)
07:20AM 44.4447 -92.9764 144° Southeast 415 478 24,700 2,700 Climbing FAA TRACON SMA TRACON (SMA)
07:21AM 44.4150 -92.9475 145° Southeast 421 484 25,500 2,340 Climbing FAA TRACON SMA TRACON (SMA)
07:21AM 44.3850 -92.9183 145° Southeast 426 490 26,300 3,120 Climbing FAA TRACON SMA TRACON (SMA)
07:21AM 44.3472 -92.8811 145° Southeast 431 496 27,600 3,480 Climbing FAA TRACON SMA TRACON (SMA)
07:22AM 44.3175 -92.8517 145° Southeast 427 491 28,600 2,820 Climbing FAA TRACON SMA TRACON (SMA)
07:22AM 44.2881 -92.8228 145° Southeast 424 488 29,500 2,520 Climbing FAA TRACON SMA TRACON (SMA)
07:22AM 44.2508 -92.7875 146° Southeast 422 486 30,300 2,100 Climbing FAA TRACON SMA TRACON (SMA)
07:23AM 44.2211 -92.7581 145° Southeast 424 488 30,900 1,020 Climbing FAA TRACON SMA TRACON (SMA)
07:23AM 44.1906 -92.7289 146° Southeast 430 495 31,000 120 Climbing FAA TRACON SMA TRACON (SMA)
07:23AM 44.1517 -92.6914 145° Southeast 440 506 31,000  Level FAA TRACON SMA TRACON (SMA)
07:24AM 44.1203 -92.6600 144° Southeast 448 516 31,000  Level FAA TRACON SMA TRACON (SMA)
07:24AM 44.0886 -92.6300 146° Southeast 448 516 31,000  Level FAA TRACON SMA TRACON (SMA)
07:24AM 44.0494 -92.5917 145° Southeast 449 517 31,000  Level FAA TRACON SMA TRACON (SMA)
07:25AM 44.0175 -92.5628 147° Southeast 447 514 31,000  Level FAA TRACON SMA TRACON (SMA)
07:25AM 43.9947 -92.5503 158° South 451 519 31,000  Level Minneapolis Center
07:26AM 43.8917 -92.4528 146° Southeast 450 518 31,000  Level Minneapolis Center
07:27AM 43.7917 -92.3567 145° Southeast 454 522 31,000  Level Minneapolis Center
07:28AM 43.6872 -92.2592 146° Southeast 456 525 31,000  Level Minneapolis Center
07:29AM 43.5842 -92.1628 146° Southeast 452 520 31,000 -480 Level Minneapolis Center
07:30AM 43.4603 -92.0522 147° Southeast 446 513 30,100 -960 Descending Minneapolis Center
07:31AM 43.3592 -91.9594 146° Southeast 442 509 29,100 -600 Descending Minneapolis Center
07:32AM 43.2575 -91.8647 146° Southeast 442 509 29,000 -60 Descending Minneapolis Center
07:33AM 43.1561 -91.7700 146° Southeast 443 510 29,000  Level Minneapolis Center
07:34AM 43.0539 -91.6722 145° Southeast 446 513 29,000  Level Minneapolis Center
07:35AM 42.9564 -91.5578 139° Southeast 456 525 29,000  Level Minneapolis Center
07:36AM 42.8561 -91.4444 140° Southeast 460 529 29,000  Level Minneapolis Center
07:37AM 42.7567 -91.3319 140° Southeast 458 527 29,000  Level Minneapolis Center
07:38AM 42.6594 -91.2225 140° Southeast 455 524 29,000  Level Minneapolis Center
07:38AM 42.6414 -91.2011 139° Southeast 454 522 29,000  Level Chicago Center
07:39AM 42.5453 -91.0939 141° Southeast 450 518 29,000  Level Chicago Center
07:41AM 42.4297 -90.9672 141° Southeast 449 517 29,000  Level Chicago Center
07:42AM 42.3347 -90.8592 140° Southeast 448 516 29,000 -360 Level Chicago Center
07:43AM 42.2431 -90.7578 141° Southeast 431 496 28,300 -1,500 Descending Chicago Center
07:44AM 42.1567 -90.6644 141° Southeast 407 468 26,000 -2,100 Descending Chicago Center
07:45AM 42.0694 -90.5678 141° Southeast 408 470 24,000 -1,380 Descending Chicago Center
07:46AM 41.9828 -90.4717 140° Southeast 408 470 23,200 -900 Descending Chicago Center
07:47AM 41.8942 -90.3753 141° Southeast 412 474 22,200 -1,020 Descending Chicago Center
07:48AM 41.7875 -90.2619 142° Southeast 411 473 21,100 -960 Descending Chicago Center
07:49AM 41.7089 -90.1753 141° Southeast 418 481 20,300 -900 Descending Chicago Center
07:50AM 41.6167 -90.0750 141° Southeast 424 488 19,300 -1,140 Descending Chicago Center
07:51AM 41.5067 -89.9578 141° Southeast 423 487 18,000 -1,080 Descending Chicago Center
07:52AM 41.4144 -89.8592 141° Southeast 423 487 17,200 -900 Descending Chicago Center
07:53AM 41.3347 -89.7483 134° Southeast 423 487 16,200 -1,020 Descending Chicago Center
07:54AM 41.3458 -89.5864 85° East 439 505 15,200 -1,020 Descending Chicago Center
07:55AM 41.3714 -89.4283 78° East 437 503 14,200 -1,020 Descending Chicago Center
07:56AM 41.3972 -89.2717 78° East 433 498 13,200 -1,020 Descending Chicago Center
07:57AM 41.4089 -89.1006 85° East 415 478 12,200 -600 Descending Chicago Center
07:58AM 41.3981 -88.9614 96° East 383 441 12,000 -360 Descending Chicago Center
07:59AM 41.3892 -88.8331 95° East 356 410 11,500 -1,080 Descending Chicago Center
08:00AM 41.3800 -88.7069 95° East 347 399 9,900 -1,320 Descending Chicago Center
08:01AM 41.3722 -88.5861 95° East 334 384 8,800 -1,200 Descending Chicago Center
08:02AM 41.3661 -88.4703 94° East 320 368 7,500 -1,320 Descending Chicago Center
08:03AM 41.4269 -88.3842 47° Northeast 296 341 6,200 -780 Descending Chicago Center
08:04AM 41.4969 -88.3431 24° Northeast 277 319 6,000 -300 Descending Chicago Center
08:05AM 41.5219 -88.2425 72° East 286 329 5,600 -540 Descending Chicago Center
08:06AM 41.5367 -88.1383 79° East 285 328 4,900 -300 Descending Chicago Center
08:07AM 41.5525 -88.0344 78° East 282 325 5,000  Climbing Chicago Center
08:08AM 41.5672 -87.9300 79° East 284 327 5,000 -60 Level Chicago Center
08:09AM 41.5825 -87.8281 79° East 281 323 4,900 -420 Descending Chicago Center
08:10AM 41.5956 -87.7375 79° East 266 306 4,200 -840 Descending Chicago Center
08:11AM 41.6303 -87.6694 56° Northeast 241 277 3,300 -780 Descending Chicago Center
08:12AM 41.6767 -87.6175 40° Northeast 215 247 2,700 -360 Descending Chicago Center
08:13AM 41.7167 -87.6500 329° Northwest 168 193 2,600 -480 Descending Chicago TRACON
08:14AM 41.7500 -87.7000 312° West 147 169 1,800 -780 Descending Chicago TRACON
08:15AM 41.7667 -87.7333 304° West 124 143 1,100 -720 Descending Chicago TRACON